Graysville, Tennessee
Current Conditions -  °F | °C
As of 4:55 AM on Sunday 23 Nov 2014 (Local Time) from KMMI Reporting Station
Overcast Overcast  
Wind Chill: 52°   Ceiling: 4800
Heat Index: 52°   Visibility: 9mi
Dew Point: 46°   Wind: 5mph
Humidity: 82%   Direction: NA
Pressure: 30.08"   Gusts: NA
Location:  35.45°N, 85.08°W
Report Text: KMMI 230955Z AUTO VRB04KT 9SM FEW031 SCT042 OVC048 11/08 A3008 RMK
Loading
Personal Weather Stations






























Interactive Weather Map New forecast layout! Learn more

10-Day Weather Forecast

Advertisements
Track Severe Weather on mobile